Details From KNUC - San Clemente Island Nalf
To MMTJ - GENERAL ABELARDO L RODRIGUEZ INTL
Flight Number AA3
Tags decoded
Created
Modified
Stats Distance 88 nm / 163 km
Max Altitude 0 ft / 0 m
Waypoints 6
Social Downloads 1
Likes 1
Share VATSIM

Download

Looking for another format? Having issues loading an existing format? Contact us
Advertisement - Login to hide

Notes

Requested: KNUC FEPAG PUMPE WIZKY OBIME MMTJ

Route

KNUC FEPAG PUMPE WIZKY NRS15 MMTJ

ID Type Via Altitude Latitude Longitude Leg Dist Tot Dist Heading (true) Name
O KNUC APT - 0 ft / 0 m 33.02274˚ -118.58849˚ - 0 nm - San Clemente Island Nalf
FEPAG FIX - 0 ft / 0 m 33.04756˚ -118.51893˚ 3 nm 3 nm 67° / 67° -
PUMPE FIX - 0 ft / 0 m 33.05732˚ -118.49026˚ 1 nm 5 nm 68° / 68° -
WIZKY FIX - 0 ft / 0 m 32.81689˚ -117.84440˚ 35 nm 40 nm 114° / 114° -
NRS15 FIX - 0 ft / 0 m 32.55810˚ -117.08095˚ 41 nm 82 nm 112° / 112° -
O MMTJ APT - 0 ft / 0 m 32.54106˚ -116.97016˚ 5 nm 88 nm 100° / 100° GENERAL ABELARDO L RODRIGUEZ INTL

Altitude Profile

Advertisement - Login to hide

KNUC

Details ICAO KNUC
Name San Clemente Island Nalf
Region United States
Timezone America/Los_Angeles (UTC-7.0)
Stats Elevation 182 ft / 55 m (AMSL)
Location 33.022745° -118.588487°
Runways 1
Magnetic Variation 11.823° E

METAR

KNUC 241556Z 23005KT 10SM OVC019 16/11 A3012 RMK AO2 SLPNO T01610111 $

Decode

TAF

TAF KNUC 2415/2515 VRB06KT 9999 OVC018 QNH3006INS FM242300 26008KT 9999 BKN020 QNH3004INS TEMPO 2423/2504 SCT020 BKN030 FM250500 VRB06KT 9999 OVC012 QNH3010INS T17/2422Z T11/2512Z FS30018

Decode

Departure Runways

ID Width Length Bearing (true) Bearing (mag) Surface Threshold Offset Overrun Length
05 200 ft / 61 m 9,290 ft / 2,832 m 67.19° 55.37° Concrete 0 ft / 0 m 0 ft / 0 m
23 200 ft / 61 m 9,290 ft / 2,832 m 247.20° 235.38° Concrete 0 ft / 0 m 0 ft / 0 m

MMTJ

Details ICAO MMTJ (TIJ)
Name GENERAL ABELARDO L RODRIGUEZ INTL
Region Mexico
Timezone America/Tijuana (UTC-7.0)
Stats Elevation 489 ft / 149 m (AMSL)
Location 32.541063° -116.970158°
Runways 1
Magnetic Variation 11.405° E

METAR

MMTJ 241550Z 00000KT 5SM OVC007 15/13 A3012 RMK 8/6// BR

Decode

TAF

TAF MMTJ 241110Z 2412/2518 00000KT 5SM RA OVC010 TX21/2420Z TN13/2412Z FM241500 30010KT P6SM OVC020 FM250300 30005KT 5SM HZ OVC015 FM251600 30010KT P6SM BKN020

Decode

Destination Runways

ID Width Length Bearing (true) Bearing (mag) Surface Threshold Offset Overrun Length
09 144 ft / 44 m 9,660 ft / 2,944 m 98.85° 87.45° Concrete 0 ft / 0 m 180 ft / 55 m
27 144 ft / 44 m 9,660 ft / 2,944 m 278.86° 267.46° Concrete 0 ft / 0 m 180 ft / 55 m

Approach Navaids

Runway Type Ident Frequency Range Bearing (true) Bearing (mag) Slope Elevation
09 Localiser ITIJ 111.50 MHz 18 nm / 33 km 99.12° 87.72° - 489 ft / 149 m (AMSL)
09 Glidescope ITIJ 111.50 MHz 10 nm / 19 km 98.86° 87.45° 3.00° 489 ft / 149 m (AMSL)
09 DME ITIJ 111.50 MHz 18 nm / 33 km - - - 489 ft / 149 m (AMSL)

Popular Alternatives